Terminal Aerodrome Forecast
Issued by NWS Greer, SC

Home | Current Version | Previous Version | Text Only | Print | Product List | Glossary On
Versions: 1 2 3 4 5 6 7 8 9 10 11 12 13 14 15 16 17
129
FTUS42 KGSP 281730
TAFGSP
TAF
KGSP 281730Z 2818/2918 23013G20KT P6SM BKN200
     FM282200 25013KT P6SM VCSH SCT060 BKN250
     FM290200 24005KT P6SM BKN250
     FM291400 24006KT P6SM SCT100=

USA.gov is the U.S. government's official web portal to all federal, state and local government web resources and services.